Time;durP1;ratioP1;P1;durP2;ratioP2;P2;SDS_P1;SDS_P2;PMS_P1;PMS_P2;Temp;Humidity;BMP_temperature;BMP_pressure;BME280_temperature;BME280_humidity;BME280_pressure;Samples;Min_cycle;Max_cycle;Signal;HPM_P1;HPM_P2
2021/09/23 00:01:27;;;;;;;;;;;;;;;9.71;95.24;101410.59;1729602;83;20084;-76
2021/09/23 00:03:57;;;;;;;;;;;;;;;9.68;95.44;101410.75;1721884;83;20148;-77
2021/09/23 00:06:24;;;;;;;;;;;;;;;9.65;95.78;101407.02;1727453;82;20125;-78
2021/09/23 00:08:52;;;;;;;;;;;;;;;9.61;96.33;101404.19;1727709;83;21178;-79
2021/09/23 00:11:18;;;;;;;;;;;;;;;9.58;96.63;101407.78;1727236;82;20430;-79
2021/09/23 00:13:46;;;;;;;;;;;;;;;9.58;96.68;101405.64;1727070;81;20104;-78
2021/09/23 00:16:14;;;;;;;;;;;;;;;9.59;96.67;101400.84;1713885;83;20150;-79
2021/09/23 00:18:42;;;;;;;;;;;;;;;9.58;96.52;101404.34;1723418;83;20552;-76
2021/09/23 00:21:11;;;;;;;;;;;;;;;9.57;96.47;101400.91;1729554;83;20180;-77
2021/09/23 00:23:38;;;;;;;;;;;;;;;9.56;96.31;101404.89;1695488;83;20131;-78
2021/09/23 00:26:06;;;;;;;;;;;;;;;9.52;96.28;101402.06;1729263;83;20096;-82
2021/09/23 00:28:32;;;;;;;;;;;;;;;9.47;96.20;101404.90;1724625;83;20097;-77
2021/09/23 00:30:59;;;;;;;;;;;;;;;9.42;96.14;101406.02;1725224;83;20148;-82
2021/09/23 00:33:26;;;;;;;;;;;;;;;9.36;96.23;101411.50;1726245;83;21154;-79
2021/09/23 00:35:52;;;;;;;;;;;;;;;9.30;96.20;101409.21;1729478;83;20192;-80
2021/09/23 00:38:20;;;;;;;;;;;;;;;9.25;96.29;101414.64;1699767;83;20097;-75
2021/09/23 00:40:46;;;;;;;;;;;;;;;9.22;96.42;101406.17;1729504;83;20173;-85
2021/09/23 00:43:13;;;;;;;;;;;;;;;9.21;96.51;101409.21;1722894;83;20098;-77
2021/09/23 00:45:40;;;;;;;;;;;;;;;9.17;96.48;101408.12;1710213;82;22003;-79
2021/09/23 00:48:08;;;;;;;;;;;;;;;9.16;96.56;101403.40;1724789;82;20366;-80
2021/09/23 00:50:37;;;;;;;;;;;;;;;9.14;96.65;101395.33;1729108;81;20495;-78
2021/09/23 00:53:09;;;;;;;;;;;;;;;9.11;96.83;101408.42;1709603;83;20133;-75
2021/09/23 00:55:36;;;;;;;;;;;;;;;9.09;97.02;101405.92;1706445;83;20166;-81
2021/09/23 00:58:03;;;;;;;;;;;;;;;9.06;97.18;101402.19;1729676;83;21097;-78
2021/09/23 01:00:32;;;;;;;;;;;;;;;9.04;97.38;101402.25;1715391;82;20428;-75
2021/09/23 01:03:02;;;;;;;;;;;;;;;9.03;97.62;101404.89;1723903;82;20414;-77
2021/09/23 01:05:31;;;;;;;;;;;;;;;9.02;97.88;101399.36;1722065;83;20137;-78
2021/09/23 01:07:58;;;;;;;;;;;;;;;9.00;98.04;101402.00;1729632;83;20501;-78
2021/09/23 01:10:27;;;;;;;;;;;;;;;8.99;98.20;101402.94;1729608;83;20624;-81
2021/09/23 01:12:53;;;;;;;;;;;;;;;8.98;98.36;101403.84;1718069;83;20110;-73
2021/09/23 01:15:21;;;;;;;;;;;;;;;8.97;98.61;101402.16;1729340;83;20442;-76
2021/09/23 01:17:48;;;;;;;;;;;;;;;8.96;98.66;101399.20;1690598;83;20398;-77
2021/09/23 01:20:16;;;;;;;;;;;;;;;8.96;98.69;101402.24;1729764;82;20156;-81
2021/09/23 01:22:44;;;;;;;;;;;;;;;8.95;98.81;101403.98;1707822;83;20184;-79
2021/09/23 01:25:19;;;;;;;;;;;;;;;8.93;98.86;101408.38;1718453;83;20193;-81
2021/09/23 01:27:46;;;;;;;;;;;;;;;8.93;99.01;101408.38;1699312;83;20100;-80
2021/09/23 01:30:15;;;;;;;;;;;;;;;8.95;98.98;101409.62;1712134;83;20130;-77
2021/09/23 01:32:43;;;;;;;;;;;;;;;8.97;98.91;101411.66;1715364;81;20140;-75
2021/09/23 01:35:11;;;;;;;;;;;;;;;8.98;98.80;101406.87;1698937;83;21170;-76
2021/09/23 01:37:37;;;;;;;;;;;;;;;8.98;98.71;101409.47;1729977;83;20164;-78
2021/09/23 01:40:07;;;;;;;;;;;;;;;8.97;98.62;101411.66;1729663;83;20101;-81
2021/09/23 01:42:35;;;;;;;;;;;;;;;8.95;98.54;101416.09;1725849;82;20113;-77
2021/09/23 01:45:04;;;;;;;;;;;;;;;8.91;98.64;101411.95;1727578;83;20121;-80
2021/09/23 01:47:33;;;;;;;;;;;;;;;8.87;98.72;101419.02;1726401;82;21168;-76
2021/09/23 01:49:59;;;;;;;;;;;;;;;8.81;99.02;101420.61;1718176;83;20145;-77
2021/09/23 01:52:28;;;;;;;;;;;;;;;8.78;99.32;101416.03;1715068;83;20228;-77
2021/09/23 01:55:16;;;;;;;;;;;;;;;8.79;99.47;101423.73;1718078;83;20114;-76
2021/09/23 01:57:44;;;;;;;;;;;;;;;8.79;99.57;101419.85;1724737;83;20137;-77
2021/09/23 02:00:11;;;;;;;;;;;;;;;8.81;99.67;101418.02;1717210;83;21864;-81
2021/09/23 02:02:40;;;;;;;;;;;;;;;8.80;99.96;101416.36;1720849;83;20092;-83
2021/09/23 02:05:10;;;;;;;;;;;;;;;8.82;100.00;101419.70;1729933;82;20167;-80
2021/09/23 02:07:37;;;;;;;;;;;;;;;8.88;100.00;101422.45;1721557;82;20171;-82
2021/09/23 02:10:08;;;;;;;;;;;;;;;8.91;100.00;101414.09;1728970;82;20100;-77
2021/09/23 02:12:34;;;;;;;;;;;;;;;8.96;100.00;101420.36;1728233;83;21102;-78
2021/09/23 02:15:04;;;;;;;;;;;;;;;8.99;100.00;101417.17;1729649;83;20513;-81
2021/09/23 02:17:33;;;;;;;;;;;;;;;9.03;100.00;101419.13;1729521;83;20124;-81
2021/09/23 02:20:01;;;;;;;;;;;;;;;9.07;100.00;101413.36;1726276;83;20145;-80
2021/09/23 02:22:32;;;;;;;;;;;;;;;9.08;100.00;101416.34;1695433;82;20112;-81
2021/09/23 02:25:01;;;;;;;;;;;;;;;9.08;100.00;101422.81;1717079;82;20100;-79
2021/09/23 02:27:29;;;;;;;;;;;;;;;9.09;100.00;101427.94;1729769;82;20434;-82
2021/09/23 02:29:57;;;;;;;;;;;;;;;9.10;100.00;101423.57;1718243;83;20152;-81
2021/09/23 02:32:25;;;;;;;;;;;;;;;9.06;100.00;101422.91;1722332;83;20165;-76
2021/09/23 02:34:51;;;;;;;;;;;;;;;9.10;100.00;101419.69;1699066;83;20104;-78
2021/09/23 02:37:18;;;;;;;;;;;;;;;9.11;100.00;101422.22;1728906;83;21861;-78
2021/09/23 02:39:44;;;;;;;;;;;;;;;9.13;100.00;101419.54;1720669;82;20098;-79
2021/09/23 02:42:12;;;;;;;;;;;;;;;9.14;100.00;101419.48;1720078;82;20092;-81
2021/09/23 02:44:41;;;;;;;;;;;;;;;9.18;100.00;101422.77;1704484;83;20118;-79
2021/09/23 02:47:09;;;;;;;;;;;;;;;9.21;100.00;101419.58;1694980;83;20177;-77
2021/09/23 02:49:36;;;;;;;;;;;;;;;9.23;100.00;101422.07;1703210;84;21119;-80
2021/09/23 02:52:03;;;;;;;;;;;;;;;9.26;99.37;101425.36;1714391;83;20088;-78
2021/09/23 02:54:30;;;;;;;;;;;;;;;9.29;98.83;101417.44;1729536;83;20142;-77
2021/09/23 02:56:56;;;;;;;;;;;;;;;9.34;98.52;101417.22;1729478;83;20085;-78
2021/09/23 02:59:24;;;;;;;;;;;;;;;9.39;97.93;101417.83;1727701;82;20152;-80
2021/09/23 03:01:50;;;;;;;;;;;;;;;9.42;97.50;101413.34;1715807;82;21125;-83
2021/09/23 03:04:16;;;;;;;;;;;;;;;9.44;97.34;101414.12;1724595;82;20438;-79
2021/09/23 03:06:43;;;;;;;;;;;;;;;9.43;97.10;101418.91;1717748;82;20135;-86
2021/09/23 03:09:09;;;;;;;;;;;;;;;9.42;97.21;101413.79;1727173;82;20088;-80
2021/09/23 03:11:37;;;;;;;;;;;;;;;9.43;97.44;101413.73;1726431;83;20267;-83
2021/09/23 03:14:06;;;;;;;;;;;;;;;9.43;97.58;101419.36;1726227;82;20184;-78
2021/09/23 03:16:34;;;;;;;;;;;;;;;9.44;97.67;101421.05;1725145;82;20121;-75
2021/09/23 03:19:01;;;;;;;;;;;;;;;9.47;97.79;101424.78;1729557;83;20147;-86
2021/09/23 03:21:28;;;;;;;;;;;;;;;9.48;97.81;101427.28;1716248;83;20125;-78
2021/09/23 03:23:56;;;;;;;;;;;;;;;9.51;97.92;101432.31;1729578;81;20100;-81
2021/09/23 03:26:22;;;;;;;;;;;;;;;9.52;97.87;101428.81;1727358;83;21724;-82
2021/09/23 03:28:51;;;;;;;;;;;;;;;9.50;97.86;101422.88;1729594;83;20100;-78
2021/09/23 03:31:19;;;;;;;;;;;;;;;9.51;97.83;101423.69;1729578;83;20427;-79
2021/09/23 03:33:47;;;;;;;;;;;;;;;9.50;97.99;101421.59;1729635;83;20105;-78
2021/09/23 03:36:15;;;;;;;;;;;;;;;9.50;98.09;101424.17;1729508;83;20434;-81
2021/09/23 03:38:43;;;;;;;;;;;;;;;9.51;98.12;101426.28;1729497;82;21574;-83
2021/09/23 03:41:09;;;;;;;;;;;;;;;9.52;98.13;101422.34;1729086;83;20141;-82
2021/09/23 03:43:36;;;;;;;;;;;;;;;9.55;98.18;101430.41;1729358;82;20117;-76
2021/09/23 03:46:07;;;;;;;;;;;;;;;9.53;98.31;101424.02;1695551;83;20147;-82
2021/09/23 03:48:33;;;;;;;;;;;;;;;9.52;98.37;101430.11;1722926;83;20100;-83
2021/09/23 03:51:02;;;;;;;;;;;;;;;9.53;98.38;101436.14;1724272;83;20132;-80
2021/09/23 03:53:31;;;;;;;;;;;;;;;9.52;98.24;101436.59;1719332;82;38343;-79
2021/09/23 03:55:57;;;;;;;;;;;;;;;9.51;98.21;101441.38;1726377;83;20187;-83
2021/09/23 03:58:26;;;;;;;;;;;;;;;9.50;98.23;101441.47;1723533;83;20112;-82
2021/09/23 04:00:52;;;;;;;;;;;;;;;9.50;97.86;101440.17;1728309;82;20447;-77
2021/09/23 04:03:19;;;;;;;;;;;;;;;9.50;97.84;101443.61;1698073;83;21172;-75
2021/09/23 04:05:46;;;;;;;;;;;;;;;9.52;97.32;101443.52;1727942;83;20415;-78
2021/09/23 04:08:12;;;;;;;;;;;;;;;9.53;96.69;101447.80;1728660;83;20121;-78
2021/09/23 04:10:40;;;;;;;;;;;;;;;9.52;96.16;101446.11;1702058;83;20072;-81
2021/09/23 04:13:07;;;;;;;;;;;;;;;9.51;96.13;101445.72;1698215;83;20108;-76
2021/09/23 04:15:34;;;;;;;;;;;;;;;9.51;95.85;101447.01;1721152;83;21176;-77
2021/09/23 04:18:02;;;;;;;;;;;;;;;9.50;95.84;101444.91;1728173;82;20176;-75
2021/09/23 04:20:31;;;;;;;;;;;;;;;9.49;95.57;101454.88;1719764;83;20141;-77
2021/09/23 04:22:58;;;;;;;;;;;;;;;9.50;95.50;101462.20;1715772;83;20140;-75
2021/09/23 04:25:26;;;;;;;;;;;;;;;9.48;95.59;101461.41;1730817;83;20759;-78
2021/09/23 04:27:54;;;;;;;;;;;;;;;9.47;95.60;101466.23;1722549;83;21122;-80
2021/09/23 04:30:22;;;;;;;;;;;;;;;9.46;95.57;101469.27;1729800;83;20159;-82
2021/09/23 04:32:48;;;;;;;;;;;;;;;9.48;95.42;101471.77;1701069;83;20104;-81
2021/09/23 04:35:16;;;;;;;;;;;;;;;9.48;95.10;101470.03;1701732;83;20657;-80
2021/09/23 04:37:43;;;;;;;;;;;;;;;9.51;94.77;101471.17;1729638;83;20163;-77
2021/09/23 04:40:12;;;;;;;;;;;;;;;9.51;94.57;101470.33;1701808;83;21147;-76
2021/09/23 04:42:42;;;;;;;;;;;;;;;9.51;94.08;101474.22;1725066;82;20200;-83
2021/09/23 04:45:10;;;;;;;;;;;;;;;9.51;94.06;101479.40;1729698;82;20426;-80
2021/09/23 04:47:39;;;;;;;;;;;;;;;9.51;93.43;101482.83;1728429;83;20211;-79
2021/09/23 04:50:06;;;;;;;;;;;;;;;9.52;93.14;101479.79;1729269;83;20169;-77
2021/09/23 04:52:35;;;;;;;;;;;;;;;9.52;93.13;101486.27;1728992;83;20618;-84
2021/09/23 04:55:04;;;;;;;;;;;;;;;9.52;92.79;101486.27;1727533;83;20462;-82
2021/09/23 04:57:35;;;;;;;;;;;;;;;9.53;93.10;101487.50;1725434;82;20104;-78
2021/09/23 05:00:04;;;;;;;;;;;;;;;9.55;92.38;101492.59;1725350;82;20093;-78
2021/09/23 05:02:32;;;;;;;;;;;;;;;9.56;92.32;101489.95;1727289;83;20104;-82
2021/09/23 05:04:59;;;;;;;;;;;;;;;9.58;92.43;101493.73;1728731;83;21150;-82
2021/09/23 05:07:28;;;;;;;;;;;;;;;9.61;91.47;101497.47;1729315;83;20215;-82
2021/09/23 05:09:55;;;;;;;;;;;;;;;9.63;91.75;101496.97;1725094;83;20120;-78
2021/09/23 05:12:22;;;;;;;;;;;;;;;9.65;91.64;101501.60;1725187;82;20093;-80
2021/09/23 05:14:51;;;;;;;;;;;;;;;9.69;91.70;101504.44;1729524;82;20136;-79
2021/09/23 05:17:17;;;;;;;;;;;;;;;9.72;91.38;101502.14;1730169;82;21157;-80
2021/09/23 05:19:46;;;;;;;;;;;;;;;9.75;91.45;101497.66;1724007;83;20124;-79
2021/09/23 05:22:26;;;;;;;;;;;;;;;9.78;91.52;101506.58;1717982;83;20165;-77
2021/09/23 05:24:49;;;;;;;;;;;;;;;9.79;91.38;101502.23;1698506;83;20104;-79
2021/09/23 05:27:15;;;;;;;;;;;;;;;9.80;91.34;101500.00;1720792;81;20145;-76
2021/09/23 05:29:43;;;;;;;;;;;;;;;9.84;91.25;101502.38;1725421;82;21119;-78
2021/09/23 05:32:10;;;;;;;;;;;;;;;9.87;91.01;101498.79;1719704;83;20130;-77
2021/09/23 05:34:36;;;;;;;;;;;;;;;9.89;90.44;101508.64;1724122;81;20178;-77
2021/09/23 05:37:06;;;;;;;;;;;;;;;9.87;90.31;101502.22;1723236;82;20092;-81
2021/09/23 05:39:36;;;;;;;;;;;;;;;9.89;90.42;101500.38;1720520;83;20114;-83
2021/09/23 05:42:03;;;;;;;;;;;;;;;9.89;89.91;101504.27;1730136;81;21962;-79
2021/09/23 05:44:31;;;;;;;;;;;;;;;9.91;90.09;101502.91;1730250;81;20109;-82
2021/09/23 05:47:00;;;;;;;;;;;;;;;9.88;89.80;101506.95;1730176;82;20084;-80
2021/09/23 05:49:27;;;;;;;;;;;;;;;9.87;89.93;101507.86;1729901;83;20471;-75
2021/09/23 05:51:55;;;;;;;;;;;;;;;9.84;89.84;101509.31;1725482;83;20077;-79
2021/09/23 05:54:24;;;;;;;;;;;;;;;9.82;89.61;101516.34;1727913;82;21559;-80
2021/09/23 05:56:52;;;;;;;;;;;;;;;9.85;89.80;101517.48;1716771;81;20224;-83
2021/09/23 05:59:21;;;;;;;;;;;;;;;9.90;89.15;101507.25;1724363;81;20448;-76
2021/09/23 06:01:48;;;;;;;;;;;;;;;9.98;89.09;101509.48;1727702;81;20477;-80
2021/09/23 06:04:15;;;;;;;;;;;;;;;10.14;88.72;101509.58;1727433;81;20157;-84
2021/09/23 06:21:32;;;;;;;;;;;;;;;10.63;79.10;101521.23;1729201;81;20099;-79
2021/09/23 06:23:58;;;;;;;;;;;;;;;10.72;79.00;101521.19;1743674;82;22027;-77
2021/09/23 06:27:36;;;;;;;;;;;;;;;10.86;79.88;101523.06;1741689;81;20099;-79
2021/09/23 06:29:57;;;;;;;;;;;;;;;10.95;79.85;101528.60;1742032;81;20082;-77
2021/09/23 06:32:25;;;;;;;;;;;;;;;11.01;78.63;101529.57;1741711;81;20123;-75
2021/09/23 06:34:56;;;;;;;;;;;;;;;11.06;78.32;101531.48;1737958;82;20466;-79
2021/09/23 06:44:53;;;;;;;;;;;;;;;10.85;76.61;101531.80;1700040;83;20087;-85
2021/09/23 06:47:38;;;;;;;;;;;;;;;10.79;76.62;101532.94;1698133;83;20142;-82
2021/09/23 06:53:41;;;;;;;;;;;;;;;10.70;76.04;101533.88;1688370;84;22722;-82
2021/09/23 06:56:07;;;;;;;;;;;;;;;10.76;76.01;101532.26;1685563;83;20213;-81
2021/09/23 06:58:34;;;;;;;;;;;;;;;10.83;75.30;101531.02;1699227;84;20123;-79
2021/09/23 07:01:20;;;;;;;;;;;;;;;10.91;73.95;101533.58;1645230;85;20621;-79
2021/09/23 07:04:10;;;;;;;;;;;;;;;10.97;74.03;101541.06;1643239;86;20296;-81
2021/09/23 07:06:42;;;;;;;;;;;;;;;11.07;73.35;101535.73;1642610;85;21266;-79
2021/09/23 07:09:41;;;;;;;;;;;;;;;11.24;72.74;101541.31;1641460;86;20436;-80
2021/09/23 07:12:13;;;;;;;;;;;;;;;11.39;73.20;101534.45;1647640;86;20600;-80
2021/09/23 07:14:40;;;;;;;;;;;;;;;11.42;70.73;101545.98;1647208;86;20251;-82
2021/09/23 07:17:08;;;;;;;;;;;;;;;11.29;71.74;101539.31;1641459;86;20190;-80
2021/09/23 07:19:34;;;;;;;;;;;;;;;11.26;71.65;101545.98;1658075;85;21151;-78
2021/09/23 07:22:04;;;;;;;;;;;;;;;11.28;71.69;101544.58;1651935;86;20180;-77
2021/09/23 07:24:30;;;;;;;;;;;;;;;11.35;72.06;101549.83;1651346;87;20111;-75
2021/09/23 07:26:57;;;;;;;;;;;;;;;11.33;72.35;101546.00;1645622;87;21185;-78
2021/09/23 07:29:27;;;;;;;;;;;;;;;11.28;73.53;101542.83;1658154;85;20121;-77
2021/09/23 07:31:55;;;;;;;;;;;;;;;11.21;74.22;101543.23;1660672;85;20932;-80
2021/09/23 07:34:23;;;;;;;;;;;;;;;11.08;74.45;101543.06;1657955;85;20149;-79
2021/09/23 07:36:50;;;;;;;;;;;;;;;10.98;74.60;101553.11;1664892;85;20452;-84
2021/09/23 07:39:20;;;;;;;;;;;;;;;10.96;75.18;101545.03;1658307;85;20126;-80
2021/09/23 07:41:48;;;;;;;;;;;;;;;10.98;73.94;101557.00;1661547;85;20157;-82
2021/09/23 07:44:15;;;;;;;;;;;;;;;10.91;74.34;101551.75;1644790;86;21167;-82
2021/09/23 07:46:43;;;;;;;;;;;;;;;10.90;75.18;101548.80;1648228;86;20153;-81
2021/09/23 07:49:10;;;;;;;;;;;;;;;11.00;75.16;101540.06;1657050;86;20150;-82
2021/09/23 07:51:38;;;;;;;;;;;;;;;11.14;74.81;101534.94;1661792;86;20134;-78
2021/09/23 07:54:06;;;;;;;;;;;;;;;11.29;74.03;101534.58;1643021;86;20102;-77
2021/09/23 07:56:34;;;;;;;;;;;;;;;11.33;71.43;101536.91;1634732;86;21215;-84
2021/09/23 07:59:03;;;;;;;;;;;;;;;11.21;71.02;101530.25;1642460;85;20184;-80
2021/09/23 08:01:33;;;;;;;;;;;;;;;11.06;71.67;101534.53;1646617;85;20139;-81
2021/09/23 08:04:02;;;;;;;;;;;;;;;11.01;71.90;101535.22;1662894;86;20149;-84
2021/09/23 08:06:29;;;;;;;;;;;;;;;11.05;71.98;101544.08;1656586;85;20085;-80
2021/09/23 08:08:57;;;;;;;;;;;;;;;11.14;71.43;101539.67;1661324;85;21980;-79
2021/09/23 08:11:27;;;;;;;;;;;;;;;11.32;71.11;101543.05;1650373;86;20090;-78
2021/09/23 08:13:55;;;;;;;;;;;;;;;11.51;69.70;101544.16;1660344;85;20105;-79
2021/09/23 08:16:26;;;;;;;;;;;;;;;11.60;69.51;101543.64;1658664;86;20153;-79
2021/09/23 08:18:58;;;;;;;;;;;;;;;11.51;69.42;101538.96;1697378;84;20168;-79
2021/09/23 08:21:27;;;;;;;;;;;;;;;11.41;69.96;101543.83;1700311;83;21577;-80
2021/09/23 08:23:55;;;;;;;;;;;;;;;11.41;70.17;101555.98;1700954;83;20187;-77
2021/09/23 08:26:25;;;;;;;;;;;;;;;11.44;69.27;101541.06;1697035;83;20091;-81
2021/09/23 08:28:53;;;;;;;;;;;;;;;11.51;67.58;101543.70;1694216;83;20164;-80
2021/09/23 08:31:21;;;;;;;;;;;;;;;11.44;67.18;101546.26;1690200;83;20127;-84
2021/09/23 08:33:50;;;;;;;;;;;;;;;11.41;67.65;101537.34;1700471;83;21152;-80
2021/09/23 08:36:17;;;;;;;;;;;;;;;11.48;68.20;101535.23;1679416;84;20144;-80
2021/09/23 08:38:47;;;;;;;;;;;;;;;11.60;67.10;101528.05;1701209;83;20156;-80
2021/09/23 08:41:17;;;;;;;;;;;;;;;11.77;65.79;101523.22;1696657;84;20151;-86
2021/09/23 08:43:48;;;;;;;;;;;;;;;11.93;64.88;101514.46;1692370;84;20159;-83
2021/09/23 08:46:17;;;;;;;;;;;;;;;12.23;65.51;101517.47;1695914;84;20107;-81
2021/09/23 08:48:45;;;;;;;;;;;;;;;12.57;64.55;101519.75;1693979;83;20162;-82
2021/09/23 08:51:12;;;;;;;;;;;;;;;12.78;61.39;101511.91;1700152;84;20146;-78
2021/09/23 08:53:40;;;;;;;;;;;;;;;12.69;60.65;101526.34;1700600;84;20277;-79
2021/09/23 08:56:13;;;;;;;;;;;;;;;12.69;60.04;101530.72;1695359;84;20172;-82
2021/09/23 08:58:42;;;;;;;;;;;;;;;12.76;60.99;101519.45;1699260;84;21184;-80
2021/09/23 09:01:10;;;;;;;;;;;;;;;12.89;60.10;101526.40;1679561;84;20466;-83
2021/09/23 09:03:43;;;;;;;;;;;;;;;12.97;59.83;101525.47;1695770;84;20135;-81
2021/09/23 09:06:14;;;;;;;;;;;;;;;13.01;60.36;101528.73;1701022;83;20424;-81
2021/09/23 09:09:04;;;;;;;;;;;;;;;13.09;59.29;101526.50;1697151;84;20306;-81
2021/09/23 09:11:41;;;;;;;;;;;;;;;13.21;58.49;101532.23;1700211;83;21272;-77
2021/09/23 09:14:08;;;;;;;;;;;;;;;13.30;58.11;101522.56;1672271;84;20543;-77
2021/09/23 09:16:38;;;;;;;;;;;;;;;13.29;57.39;101527.86;1664905;84;20156;-78
2021/09/23 09:19:06;;;;;;;;;;;;;;;13.11;57.87;101533.28;1700021;83;20181;-81
2021/09/23 09:21:35;;;;;;;;;;;;;;;12.94;58.51;101531.34;1645126;84;20157;-82
2021/09/23 09:24:04;;;;;;;;;;;;;;;12.87;59.11;101523.06;1700859;84;21176;-81
2021/09/23 09:26:37;;;;;;;;;;;;;;;12.85;59.70;101521.03;1701855;84;20178;-83
2021/09/23 09:29:05;;;;;;;;;;;;;;;12.94;59.63;101520.45;1717068;81;20153;-81
2021/09/23 09:31:33;;;;;;;;;;;;;;;13.16;59.59;101522.12;1729167;83;20186;-77
2021/09/23 09:34:04;;;;;;;;;;;;;;;13.22;58.60;101530.85;1695897;83;20231;-84
2021/09/23 09:36:40;;;;;;;;;;;;;;;13.19;58.97;101523.23;1720889;83;21163;-77
2021/09/23 09:39:13;;;;;;;;;;;;;;;13.17;58.21;101522.50;1714034;83;20237;-82
2021/09/23 09:41:42;;;;;;;;;;;;;;;13.22;57.14;101523.49;1727151;83;20105;-79
2021/09/23 09:44:13;;;;;;;;;;;;;;;13.26;57.26;101527.59;1728985;83;20108;-78
2021/09/23 09:46:53;;;;;;;;;;;;;;;13.32;57.01;101524.59;1698715;83;20148;-74
2021/09/23 09:49:22;;;;;;;;;;;;;;;13.50;56.20;101527.77;1729624;83;21139;-76
2021/09/23 09:51:54;;;;;;;;;;;;;;;13.56;56.28;101523.00;1715315;83;20156;-77
2021/09/23 09:54:24;;;;;;;;;;;;;;;13.67;56.66;101521.85;1717869;83;20220;-81
2021/09/23 09:56:59;;;;;;;;;;;;;;;13.79;56.33;101528.03;1719774;83;20243;-79
2021/09/23 09:59:29;;;;;;;;;;;;;;;14.23;55.76;101533.73;1724942;82;20159;-81
2021/09/23 10:01:57;;;;;;;;;;;;;;;15.16;53.32;101534.66;1725427;82;21971;-80
2021/09/23 10:04:24;;;;;;;;;;;;;;;15.35;51.18;101531.56;1729678;82;20181;-82
2021/09/23 10:06:58;;;;;;;;;;;;;;;15.65;49.99;101543.77;1729497;83;20100;-82
2021/09/23 10:09:30;;;;;;;;;;;;;;;16.07;48.03;101529.28;1729503;82;20144;-82
2021/09/23 10:11:59;;;;;;;;;;;;;;;16.04;48.14;101536.06;1722646;82;20127;-78
2021/09/23 10:14:25;;;;;;;;;;;;;;;16.46;48.45;101527.21;1699583;83;20500;-76
2021/09/23 10:16:53;;;;;;;;;;;;;;;16.52;48.32;101539.84;1725085;82;20077;-81
2021/09/23 10:19:21;;;;;;;;;;;;;;;15.99;48.35;101544.72;1692581;83;20141;-82
2021/09/23 10:21:48;;;;;;;;;;;;;;;15.35;50.41;101550.70;1702726;83;20206;-79
2021/09/23 10:24:16;;;;;;;;;;;;;;;14.85;52.16;101537.77;1730001;81;20459;-79
2021/09/23 10:26:44;;;;;;;;;;;;;;;14.39;52.16;101543.20;1728985;82;21610;-82
2021/09/23 10:29:12;;;;;;;;;;;;;;;13.95;53.21;101553.48;1717280;83;20171;-80
2021/09/23 10:31:39;;;;;;;;;;;;;;;13.69;54.39;101547.82;1698021;83;20169;-79
2021/09/23 10:34:09;;;;;;;;;;;;;;;13.62;55.08;101546.11;1729524;83;20133;-81
2021/09/23 10:36:38;;;;;;;;;;;;;;;13.56;56.05;101549.58;1720479;83;20102;-80
2021/09/23 10:39:09;;;;;;;;;;;;;;;13.49;55.72;101545.22;1698403;83;21209;-80
2021/09/23 10:41:39;;;;;;;;;;;;;;;13.46;55.37;101552.39;1719863;83;20449;-80
2021/09/23 10:44:05;;;;;;;;;;;;;;;13.45;55.62;101546.34;1695506;83;20184;-80
2021/09/23 10:46:33;;;;;;;;;;;;;;;13.41;56.26;101547.92;1694200;83;20601;-78
2021/09/23 10:49:00;;;;;;;;;;;;;;;13.45;56.92;101545.50;1694612;83;20224;-78
2021/09/23 10:51:32;;;;;;;;;;;;;;;13.48;56.71;101540.93;1676504;83;20096;-76
2021/09/23 10:54:05;;;;;;;;;;;;;;;13.37;56.84;101547.77;1724321;83;20136;-82
2021/09/23 10:56:32;;;;;;;;;;;;;;;13.28;57.72;101557.45;1729781;82;20100;-77
2021/09/23 10:58:58;;;;;;;;;;;;;;;13.20;57.69;101548.83;1718673;83;20192;-80
2021/09/23 11:01:30;;;;;;;;;;;;;;;13.13;58.14;101547.08;1722223;83;20110;-83
2021/09/23 11:04:00;;;;;;;;;;;;;;;13.07;58.75;101547.89;1728278;82;20140;-81
2021/09/23 11:06:34;;;;;;;;;;;;;;;13.03;59.24;101547.70;1717816;83;20089;-77
2021/09/23 11:09:23;;;;;;;;;;;;;;;12.96;59.60;101542.48;1717941;83;20110;-82
2021/09/23 11:11:56;;;;;;;;;;;;;;;12.95;59.64;101539.53;1703471;84;20078;-79
2021/09/23 11:14:27;;;;;;;;;;;;;;;12.90;59.81;101541.11;1719133;82;20120;-82
2021/09/23 11:17:00;;;;;;;;;;;;;;;12.87;60.16;101538.69;1729401;82;20113;-81
2021/09/23 11:19:29;;;;;;;;;;;;;;;12.75;60.91;101549.87;1729641;82;20136;-79
2021/09/23 11:22:01;;;;;;;;;;;;;;;12.70;61.14;101551.89;1725406;81;20148;-77
2021/09/23 11:24:30;;;;;;;;;;;;;;;12.60;61.56;101552.91;1698842;83;20418;-81
2021/09/23 11:26:57;;;;;;;;;;;;;;;12.54;62.34;101555.08;1729566;82;20121;-76
2021/09/23 11:29:26;;;;;;;;;;;;;;;12.47;62.31;101558.98;1699157;83;20186;-79
2021/09/23 11:31:56;;;;;;;;;;;;;;;12.42;62.21;101547.52;1725246;81;20241;-80
2021/09/23 11:34:34;;;;;;;;;;;;;;;12.42;62.87;101556.63;1726567;81;20272;-77
2021/09/23 11:37:04;;;;;;;;;;;;;;;12.40;62.96;101555.89;1715817;83;20145;-79
2021/09/23 11:39:32;;;;;;;;;;;;;;;12.37;63.11;101548.73;1727069;82;20088;-81
2021/09/23 11:42:11;;;;;;;;;;;;;;;12.33;63.35;101553.73;1729732;83;21141;-78
2021/09/23 11:44:50;;;;;;;;;;;;;;;12.31;63.18;101544.73;1718882;81;20432;-76
2021/09/23 11:47:21;;;;;;;;;;;;;;;12.34;63.36;101545.85;1725814;82;20260;-78
2021/09/23 11:49:52;;;;;;;;;;;;;;;12.39;63.63;101550.31;1679170;84;20167;-81
2021/09/23 11:52:34;;;;;;;;;;;;;;;12.47;63.04;101540.75;1663825;84;20098;-81
2021/09/23 11:55:01;;;;;;;;;;;;;;;12.53;62.72;101539.92;1669067;84;21827;-76
2021/09/23 11:57:29;;;;;;;;;;;;;;;12.64;62.98;101549.20;1720465;83;20169;-76
2021/09/23 11:59:58;;;;;;;;;;;;;;;12.77;62.52;101545.85;1729728;83;20096;-78
2021/09/23 12:02:26;;;;;;;;;;;;;;;12.81;61.74;101550.80;1729560;83;20462;-77
2021/09/23 12:05:01;;;;;;;;;;;;;;;12.88;61.55;101544.28;1710819;83;20101;-83
2021/09/23 12:07:31;;;;;;;;;;;;;;;12.94;61.23;101544.36;1720664;83;21139;-79
2021/09/23 12:10:06;;;;;;;;;;;;;;;13.01;61.64;101548.27;1729573;83;20104;-82
2021/09/23 12:12:36;;;;;;;;;;;;;;;13.08;61.85;101546.97;1721635;83;20133;-80
2021/09/23 12:15:04;;;;;;;;;;;;;;;13.13;62.04;101548.37;1729782;83;20419;-75
2021/09/23 12:17:33;;;;;;;;;;;;;;;13.15;61.55;101555.63;1725830;83;20121;-78
2021/09/23 12:20:02;;;;;;;;;;;;;;;13.03;61.59;101549.84;1726156;81;20592;-80
2021/09/23 12:22:35;;;;;;;;;;;;;;;12.95;62.18;101557.77;1709934;82;20090;-79
2021/09/23 12:25:15;;;;;;;;;;;;;;;12.88;62.25;101553.86;1710844;82;20455;-83
2021/09/23 12:27:42;;;;;;;;;;;;;;;12.80;62.67;101548.27;1714957;82;20122;-76
2021/09/23 12:30:12;;;;;;;;;;;;;;;12.81;62.59;101543.44;1714028;82;20184;-82
2021/09/23 12:32:44;;;;;;;;;;;;;;;12.79;62.69;101553.13;1726949;83;20175;-81
2021/09/23 12:35:20;;;;;;;;;;;;;;;12.74;63.27;101548.19;1729593;83;20089;-80
2021/09/23 12:37:49;;;;;;;;;;;;;;;12.73;63.58;101546.05;1729303;83;20161;-79
2021/09/23 12:40:20;;;;;;;;;;;;;;;12.78;63.47;101544.94;1723126;83;20171;-78
2021/09/23 12:42:47;;;;;;;;;;;;;;;12.85;63.73;101546.23;1698641;83;20115;-77
2021/09/23 12:45:16;;;;;;;;;;;;;;;12.96;63.48;101549.00;1729851;83;21091;-85
2021/09/23 12:47:45;;;;;;;;;;;;;;;13.00;63.30;101542.68;1731125;82;20180;-77
2021/09/23 12:50:13;;;;;;;;;;;;;;;13.02;62.64;101548.62;1730472;83;20432;-80
2021/09/23 12:52:43;;;;;;;;;;;;;;;13.05;62.39;101549.77;1729953;83;20101;-77
2021/09/23 12:55:17;;;;;;;;;;;;;;;13.03;61.34;101551.14;1717818;83;20151;-79
2021/09/23 12:57:52;;;;;;;;;;;;;;;13.01;61.39;101554.78;1729079;82;21813;-82
2021/09/23 13:00:38;;;;;;;;;;;;;;;13.02;61.64;101557.28;1711866;83;20102;-80
2021/09/23 13:03:11;;;;;;;;;;;;;;;13.03;62.41;101551.14;1707717;83;20137;-77
2021/09/23 13:05:42;;;;;;;;;;;;;;;13.03;62.29;101556.36;1721668;83;20145;-83
2021/09/23 13:08:19;;;;;;;;;;;;;;;12.97;62.56;101561.11;1728629;82;20092;-82
2021/09/23 13:10:47;;;;;;;;;;;;;;;12.90;62.85;101563.25;1727224;83;21219;-81
2021/09/23 13:13:21;;;;;;;;;;;;;;;12.84;63.16;101566.23;1714706;83;20427;-83
2021/09/23 13:15:48;;;;;;;;;;;;;;;12.79;63.82;101558.34;1730448;82;20470;-82
2021/09/23 13:18:32;;;;;;;;;;;;;;;12.78;64.50;101562.70;1729421;83;20169;-78